Terminal Aerodrome Forecast
Issued by NWS

Home | Current Version | Previous Version | Text Only | Print | Product List | Glossary On
Versions: 1 2 3 4 5 6 7 8 9 10 11 12 13 14 15 16 17 18 19 20 21 22
000
FTUS45 KSLC 050137 AAA
TAFEVW
TAF AMD
KEVW 050137Z 0502/0524 22020G30KT P6SM VCSH SCT030 BKN050
     FM050800 25022G32KT 1SM -SN SCT009 OVC020
     FM051300 28014KT P6SM VCSH SCT020 BKN035
     FM051700 28010KT P6SM SCT040=

USA.gov is the U.S. government's official web portal to all federal, state and local government web resources and services.